Time;durP1;ratioP1;P1;durP2;ratioP2;P2;SDS_P1;SDS_P2;PMS_P1;PMS_P2;Temp;Humidity;BMP_temperature;BMP_pressure;BME280_temperature;BME280_humidity;BME280_pressure;Samples;Min_cycle;Max_cycle;Signal;HPM_P1;HPM_P2
2023/04/24 00:00:05;;;;;;;16.77;3.50;;;13.70;99.90;;;;;;5113559;28;20488;-74
2023/04/24 00:02:31;;;;;;;18.63;3.78;;;13.70;99.90;;;;;;5113301;28;20046;-73
2023/04/24 00:04:57;;;;;;;19.33;3.65;;;13.70;99.90;;;;;;5112996;28;20495;-73
2023/04/24 00:07:22;;;;;;;12.57;3.05;;;13.70;99.90;;;;;;5112979;28;20024;-74
2023/04/24 00:09:48;;;;;;;15.90;3.10;;;13.70;99.90;;;;;;5094787;28;20039;-73
2023/04/24 00:12:14;;;;;;;19.65;4.10;;;13.70;99.90;;;;;;5094649;28;20128;-74
2023/04/24 00:14:40;;;;;;;13.82;3.75;;;13.70;99.90;;;;;;5094866;28;20403;-73
2023/04/24 00:17:05;;;;;;;15.57;3.42;;;13.60;99.90;;;;;;5112957;28;20034;-73
2023/04/24 00:19:31;;;;;;;13.32;3.00;;;13.70;99.90;;;;;;5112745;28;20032;-74
2023/04/24 00:21:57;;;;;;;17.05;3.53;;;13.60;99.90;;;;;;5113296;28;20095;-73
2023/04/24 00:24:22;;;;;;;17.40;3.75;;;13.70;99.90;;;;;;5112725;28;20507;-74
2023/04/24 00:26:48;;;;;;;17.35;3.65;;;13.70;99.90;;;;;;5112903;28;20024;-73
2023/04/24 00:29:14;;;;;;;14.23;3.15;;;13.70;99.90;;;;;;5112395;28;20023;-73
2023/04/24 00:31:40;;;;;;;15.70;3.30;;;13.60;99.90;;;;;;5112001;28;20031;-74
2023/04/24 00:34:06;;;;;;;17.42;3.83;;;13.60;99.90;;;;;;5112454;28;20027;-73
2023/04/24 00:36:32;;;;;;;16.48;3.58;;;13.50;99.90;;;;;;5094346;28;20076;-72
2023/04/24 00:38:58;;;;;;;15.77;3.85;;;13.60;99.90;;;;;;5112701;28;20024;-73
2023/04/24 00:41:25;;;;;;;13.02;3.88;;;13.60;99.90;;;;;;5112635;28;20108;-74
2023/04/24 00:43:52;;;;;;;15.32;3.10;;;13.70;99.90;;;;;;5112501;28;20391;-74
2023/04/24 00:46:18;;;;;;;8.82;2.53;;;13.80;99.90;;;;;;5094174;28;20396;-74
2023/04/24 00:48:43;;;;;;;14.30;3.05;;;13.80;99.90;;;;;;5112269;28;20028;-74
2023/04/24 00:51:09;;;;;;;11.82;3.03;;;13.80;99.90;;;;;;5112390;28;20055;-74
2023/04/24 00:53:35;;;;;;;10.35;2.85;;;13.70;99.90;;;;;;5112122;28;20432;-73
2023/04/24 00:56:01;;;;;;;10.52;2.80;;;13.70;99.90;;;;;;5112460;28;20137;-72
2023/04/24 00:58:27;;;;;;;11.73;2.83;;;13.60;99.90;;;;;;5112318;28;20047;-73
2023/04/24 01:00:55;;;;;;;11.57;2.92;;;13.50;99.90;;;;;;5112509;28;20023;-74
2023/04/24 01:03:24;;;;;;;11.90;3.05;;;13.50;99.90;;;;;;5112320;28;20514;-73
2023/04/24 01:05:50;;;;;;;12.52;2.75;;;13.50;99.90;;;;;;5111893;28;20392;-74
2023/04/24 01:08:16;;;;;;;10.35;2.40;;;13.50;99.90;;;;;;5111496;28;20019;-73
2023/04/24 01:10:44;;;;;;;9.50;2.72;;;13.50;99.90;;;;;;5112094;28;20039;-73
2023/04/24 01:13:10;;;;;;;7.38;2.70;;;13.40;99.90;;;;;;5111801;28;20584;-74
2023/04/24 01:15:36;;;;;;;9.65;2.55;;;13.50;99.90;;;;;;5093753;28;20020;-73
2023/04/24 01:18:03;;;;;;;10.70;3.10;;;13.50;99.90;;;;;;5112265;28;20062;-72
2023/04/24 01:20:29;;;;;;;11.73;2.95;;;13.50;99.90;;;;;;5112099;28;20058;-73
2023/04/24 01:22:57;;;;;;;12.63;2.80;;;13.50;99.90;;;;;;5111534;28;20596;-74
2023/04/24 01:25:24;;;;;;;13.73;3.08;;;13.60;99.90;;;;;;5112314;28;20027;-73
2023/04/24 01:27:51;;;;;;;10.52;3.63;;;13.70;99.90;;;;;;5111806;28;20046;-74
2023/04/24 01:30:17;;;;;;;9.25;3.63;;;13.70;99.90;;;;;;5111788;28;20055;-73
2023/04/24 01:32:44;;;;;;;14.00;3.55;;;13.70;99.90;;;;;;5111703;28;20066;-71
2023/04/24 01:35:10;;;;;;;9.10;3.58;;;13.80;99.90;;;;;;5111632;28;20507;-73
2023/04/24 01:37:39;;;;;;;10.73;3.38;;;13.80;99.90;;;;;;5111785;28;20024;-73
2023/04/24 01:40:08;;;;;;;11.32;3.40;;;13.80;99.90;;;;;;5112058;28;20020;-72
2023/04/24 01:42:34;;;;;;;9.40;3.25;;;13.70;99.90;;;;;;5111925;28;20019;-73
2023/04/24 01:45:01;;;;;;;8.85;3.65;;;13.70;99.90;;;;;;5111960;28;20107;-74
2023/04/24 01:47:28;;;;;;;12.30;3.45;;;13.70;99.90;;;;;;5111600;28;20392;-73
2023/04/24 01:49:53;;;;;;;8.88;3.50;;;13.60;99.90;;;;;;5111246;28;20176;-73
2023/04/24 01:52:19;;;;;;;13.10;3.83;;;13.70;99.90;;;;;;5111663;28;20505;-73
2023/04/24 01:54:45;;;;;;;8.15;3.42;;;13.60;99.90;;;;;;5093646;28;20031;-73
2023/04/24 01:57:11;;;;;;;10.55;3.78;;;13.70;99.90;;;;;;5111592;28;20032;-74
2023/04/24 01:59:36;;;;;;;11.95;3.70;;;13.60;99.90;;;;;;5111821;28;20103;-73
2023/04/24 02:02:03;;;;;;;13.73;3.72;;;13.60;99.90;;;;;;5111427;28;20030;-73
2023/04/24 02:04:29;;;;;;;10.98;3.85;;;13.60;99.90;;;;;;5111004;28;20027;-74
2023/04/24 02:06:54;;;;;;;10.45;3.40;;;13.60;99.90;;;;;;5111476;28;20038;-73
2023/04/24 02:09:20;;;;;;;11.38;3.95;;;13.50;99.90;;;;;;5111449;28;20480;-73
2023/04/24 02:11:46;;;;;;;12.65;4.15;;;13.60;99.90;;;;;;5111108;28;20468;-73
2023/04/24 02:14:12;;;;;;;9.30;3.20;;;13.50;99.90;;;;;;5111772;28;20032;-73
2023/04/24 02:16:38;;;;;;;10.20;3.22;;;13.40;99.90;;;;;;5093056;28;20107;-73
2023/04/24 02:19:04;;;;;;;11.00;3.38;;;13.50;99.90;;;;;;5113387;28;20067;-73
2023/04/24 02:21:30;;;;;;;12.05;3.50;;;13.40;99.90;;;;;;5115286;28;20460;-73
2023/04/24 02:23:56;;;;;;;9.95;3.30;;;13.40;99.90;;;;;;5115307;28;20756;-73
2023/04/24 02:26:22;;;;;;;11.85;4.00;;;13.50;99.90;;;;;;5115202;28;20032;-73
2023/04/24 02:28:48;;;;;;;8.75;3.70;;;13.50;99.90;;;;;;5114744;28;20028;-73
2023/04/24 02:31:14;;;;;;;11.55;4.05;;;13.50;99.90;;;;;;5115057;28;20046;-73
2023/04/24 02:33:40;;;;;;;11.50;3.75;;;13.50;99.90;;;;;;5114689;28;20115;-73
2023/04/24 02:36:05;;;;;;;11.65;4.10;;;13.50;99.90;;;;;;5115369;28;20092;-74
2023/04/24 02:38:31;;;;;;;9.55;3.78;;;13.50;99.90;;;;;;5115213;28;20024;-73
2023/04/24 02:40:57;;;;;;;11.50;4.00;;;13.40;99.90;;;;;;5115098;28;20024;-74
2023/04/24 02:43:23;;;;;;;8.48;3.83;;;13.30;99.90;;;;;;5114921;28;20054;-74
2023/04/24 02:45:48;;;;;;;9.70;4.10;;;13.30;99.90;;;;;;5114762;28;20031;-73
2023/04/24 02:48:14;;;;;;;8.95;3.83;;;13.20;99.90;;;;;;5114754;28;20023;-74
2023/04/24 02:50:40;;;;;;;12.90;4.18;;;13.20;99.90;;;;;;5114744;28;20030;-73
2023/04/24 02:53:06;;;;;;;12.15;4.15;;;13.20;99.90;;;;;;5114573;28;20023;-73
2023/04/24 02:55:32;;;;;;;9.15;3.92;;;13.10;99.90;;;;;;5114624;28;20506;-74
2023/04/24 02:57:57;;;;;;;10.63;4.05;;;13.10;99.90;;;;;;5115180;28;20031;-73
2023/04/24 03:00:23;;;;;;;9.45;3.90;;;13.00;99.90;;;;;;5114651;28;20686;-73
2023/04/24 03:02:49;;;;;;;9.95;4.25;;;13.10;99.90;;;;;;5114270;28;20027;-73
2023/04/24 03:05:15;;;;;;;10.73;4.07;;;13.00;99.90;;;;;;5114598;28;20027;-73
2023/04/24 03:07:41;;;;;;;11.38;4.03;;;13.00;99.90;;;;;;5114273;28;20052;-73
2023/04/24 03:10:07;;;;;;;9.73;3.78;;;13.00;99.90;;;;;;5114495;28;20024;-73
2023/04/24 03:12:33;;;;;;;10.63;4.22;;;13.00;99.90;;;;;;5114139;28;20048;-72
2023/04/24 03:14:59;;;;;;;12.25;4.40;;;13.00;99.90;;;;;;5114478;28;20151;-73
2023/04/24 03:17:25;;;;;;;7.95;3.90;;;12.90;99.90;;;;;;5113832;28;20030;-73
2023/04/24 03:19:50;;;;;;;8.25;3.90;;;12.90;99.90;;;;;;5114180;28;20024;-74
2023/04/24 03:22:16;;;;;;;11.02;4.10;;;12.80;99.90;;;;;;5114200;28;20080;-73
2023/04/24 03:24:42;;;;;;;8.43;4.13;;;12.80;99.90;;;;;;5114964;28;20032;-73
2023/04/24 03:27:07;;;;;;;10.00;4.35;;;12.70;99.90;;;;;;5095656;28;20057;-73
2023/04/24 03:29:33;;;;;;;9.25;4.30;;;12.70;99.90;;;;;;5113388;28;20039;-73
2023/04/24 03:31:59;;;;;;;12.20;4.63;;;12.60;99.90;;;;;;5095215;28;20035;-73
2023/04/24 03:34:24;;;;;;;12.27;4.57;;;12.50;99.90;;;;;;5095322;28;20472;-73
2023/04/24 03:36:50;;;;;;;10.77;4.30;;;12.50;99.90;;;;;;5114070;28;20020;-73
2023/04/24 03:39:16;;;;;;;10.35;4.60;;;12.50;99.90;;;;;;5113850;28;20023;-73
2023/04/24 03:41:42;;;;;;;13.82;4.75;;;12.50;99.90;;;;;;5114120;28;20482;-73
2023/04/24 03:44:07;;;;;;;11.65;4.70;;;12.50;99.90;;;;;;5114227;28;20020;-73
2023/04/24 03:46:33;;;;;;;8.65;4.25;;;12.40;99.90;;;;;;5095058;28;20449;-72
2023/04/24 03:48:58;;;;;;;14.20;4.68;;;12.30;99.90;;;;;;5113459;28;20043;-73
2023/04/24 03:51:25;;;;;;;11.63;4.75;;;12.30;99.90;;;;;;5113588;28;20054;-73
2023/04/24 03:53:50;;;;;;;10.13;4.55;;;12.30;99.90;;;;;;5113573;28;20047;-73
2023/04/24 03:56:16;;;;;;;9.90;4.70;;;12.20;99.90;;;;;;5113392;28;20555;-73
2023/04/24 03:58:42;;;;;;;10.18;4.45;;;12.10;99.90;;;;;;5113756;28;20076;-73
2023/04/24 04:01:08;;;;;;;8.55;4.40;;;12.00;99.90;;;;;;5113062;28;20027;-73
2023/04/24 04:03:33;;;;;;;10.65;4.80;;;12.00;99.90;;;;;;5113388;28;20027;-72
2023/04/24 04:05:59;;;;;;;11.00;4.90;;;11.90;99.90;;;;;;5113436;28;20032;-73
2023/04/24 04:08:25;;;;;;;11.07;4.50;;;11.80;99.90;;;;;;5113044;28;20058;-73
2023/04/24 04:10:51;;;;;;;10.85;4.40;;;11.70;99.90;;;;;;5113122;28;20038;-73
2023/04/24 04:13:16;;;;;;;10.45;4.57;;;11.70;99.90;;;;;;5113253;28;20052;-74
2023/04/24 04:15:42;;;;;;;10.27;4.38;;;11.70;99.90;;;;;;5112938;28;20019;-73
2023/04/24 04:18:08;;;;;;;10.98;4.70;;;11.70;99.90;;;;;;5112844;28;20023;-73
2023/04/24 04:20:34;;;;;;;10.57;4.70;;;11.60;99.90;;;;;;5113025;28;20059;-73
2023/04/24 04:22:59;;;;;;;12.60;4.72;;;11.60;99.90;;;;;;5112868;28;20024;-73
2023/04/24 04:25:25;;;;;;;9.43;4.70;;;11.50;99.90;;;;;;5113052;28;20032;-73
2023/04/24 04:27:52;;;;;;;12.02;4.95;;;11.50;99.90;;;;;;5112613;28;20020;-72
2023/04/24 04:30:18;;;;;;;13.52;5.30;;;11.50;99.90;;;;;;5094144;28;20031;-73
2023/04/24 04:32:44;;;;;;;10.15;4.60;;;11.40;99.90;;;;;;5113070;28;20077;-73
2023/04/24 04:35:10;;;;;;;12.27;5.03;;;11.30;99.90;;;;;;5113055;28;20035;-72
2023/04/24 04:37:35;;;;;;;11.38;4.68;;;11.20;99.90;;;;;;5112509;28;20068;-74
2023/04/24 04:40:12;;;;;;;14.52;5.32;;;11.10;99.90;;;;;;5112581;28;20051;-73
2023/04/24 04:42:40;;;;;;;14.50;5.00;;;11.00;99.90;;;;;;5111297;28;20080;-72
2023/04/24 04:45:08;;;;;;;9.75;5.15;;;10.90;99.90;;;;;;5112831;28;20107;-74
2023/04/24 04:47:34;;;;;;;12.88;5.63;;;11.00;99.90;;;;;;5113158;28;20157;-73
2023/04/24 04:50:00;;;;;;;10.60;5.10;;;11.00;99.90;;;;;;5112328;28;20063;-73
2023/04/24 04:52:26;;;;;;;7.90;5.18;;;11.00;99.90;;;;;;5112465;28;20053;-74
2023/04/24 04:54:52;;;;;;;13.02;5.60;;;10.90;99.90;;;;;;5112214;28;20031;-73
2023/04/24 04:57:18;;;;;;;10.65;5.10;;;10.80;99.90;;;;;;5112013;28;20024;-73
2023/04/24 04:59:44;;;;;;;10.10;5.00;;;10.70;99.90;;;;;;5112494;28;20038;-73
2023/04/24 05:02:10;;;;;;;10.82;5.40;;;10.60;99.90;;;;;;5112405;28;20399;-73
2023/04/24 05:04:36;;;;;;;11.35;5.25;;;10.50;99.90;;;;;;5112304;28;20023;-73
2023/04/24 05:07:01;;;;;;;9.43;5.57;;;10.60;99.90;;;;;;5112101;28;20027;-72
2023/04/24 05:09:29;;;;;;;10.07;5.30;;;10.60;99.90;;;;;;5111654;28;20051;-73
2023/04/24 05:11:55;;;;;;;12.45;5.82;;;10.60;99.90;;;;;;5111564;28;20055;-74
2023/04/24 05:14:21;;;;;;;11.32;5.53;;;10.60;99.90;;;;;;5112388;28;20043;-73
2023/04/24 05:16:47;;;;;;;10.82;5.28;;;10.60;99.90;;;;;;5111957;28;20027;-73
2023/04/24 05:19:13;;;;;;;17.77;6.20;;;10.70;99.90;;;;;;5112291;28;20042;-73
2023/04/24 05:21:40;;;;;;;11.70;6.00;;;10.70;99.90;;;;;;5111805;28;20031;-72
2023/04/24 05:24:06;;;;;;;12.68;5.55;;;10.60;99.90;;;;;;5111948;28;20028;-73
2023/04/24 05:26:32;;;;;;;10.63;5.40;;;10.60;99.90;;;;;;5111547;28;20050;-72
2023/04/24 05:28:57;;;;;;;15.32;5.40;;;10.70;99.90;;;;;;5111785;28;20496;-73
2023/04/24 05:31:23;;;;;;;14.07;5.72;;;10.70;99.90;;;;;;5111901;28;20024;-73
2023/04/24 05:33:49;;;;;;;10.25;6.00;;;10.80;99.90;;;;;;5111684;28;20045;-73
2023/04/24 05:36:15;;;;;;;12.75;5.95;;;10.90;99.90;;;;;;5111890;28;20392;-73
2023/04/24 05:38:40;;;;;;;18.50;6.05;;;10.90;99.90;;;;;;5112175;28;20019;-73
2023/04/24 05:41:06;;;;;;;10.93;5.90;;;10.90;99.90;;;;;;5111201;28;20020;-73
2023/04/24 05:43:31;;;;;;;11.88;5.32;;;11.00;99.90;;;;;;5111694;28;20038;-74
2023/04/24 05:45:57;;;;;;;10.27;5.32;;;11.10;99.90;;;;;;5111697;28;20107;-73
2023/04/24 05:48:23;;;;;;;12.38;5.20;;;11.20;99.90;;;;;;5111756;28;20059;-73
2023/04/24 05:50:49;;;;;;;12.75;5.80;;;11.10;99.90;;;;;;5111576;28;20032;-73
2023/04/24 05:53:15;;;;;;;12.63;5.43;;;11.20;99.90;;;;;;5112774;28;20392;-73
2023/04/24 05:55:41;;;;;;;12.77;5.40;;;11.20;99.90;;;;;;5116047;28;20028;-72
2023/04/24 05:58:06;;;;;;;12.32;6.32;;;11.20;99.90;;;;;;5116032;28;20540;-73
2023/04/24 06:00:33;;;;;;;14.75;5.65;;;11.20;99.90;;;;;;5116166;28;20031;-72
2023/04/24 06:03:00;;;;;;;12.45;5.40;;;11.20;99.90;;;;;;5115838;28;20368;-73
2023/04/24 06:05:26;;;;;;;13.70;5.50;;;11.20;99.90;;;;;;5115754;28;20137;-75
2023/04/24 06:07:52;;;;;;;14.18;5.75;;;11.20;99.90;;;;;;5115645;28;20036;-75
2023/04/24 06:10:17;;;;;;;12.98;5.63;;;11.30;99.90;;;;;;5115476;28;20168;-74
2023/04/24 06:12:43;;;;;;;9.82;5.97;;;11.30;99.90;;;;;;5115380;28;20539;-74
2023/04/24 06:15:09;;;;;;;13.55;5.90;;;11.40;99.90;;;;;;5115160;28;20028;-74
2023/04/24 06:17:35;;;;;;;11.70;5.63;;;11.40;99.90;;;;;;5115766;28;20024;-75
2023/04/24 06:20:04;;;;;;;13.32;5.68;;;11.50;99.90;;;;;;5115699;28;20027;-74
2023/04/24 06:22:30;;;;;;;9.95;5.47;;;11.50;99.90;;;;;;5115147;28;20088;-75
2023/04/24 06:24:56;;;;;;;11.25;5.60;;;11.60;99.90;;;;;;5114778;28;20024;-74
2023/04/24 06:27:22;;;;;;;13.45;5.82;;;11.70;99.90;;;;;;5115001;28;20063;-75
2023/04/24 06:29:54;;;;;;;13.65;5.57;;;11.80;99.90;;;;;;5114976;28;20028;-73
2023/04/24 06:32:23;;;;;;;15.65;5.95;;;11.80;99.90;;;;;;5115380;28;20073;-78
2023/04/24 06:34:49;;;;;;;11.98;5.75;;;11.90;99.90;;;;;;5115291;28;20024;-74
2023/04/24 06:37:16;;;;;;;13.98;5.55;;;11.90;99.90;;;;;;5115259;28;20034;-74
2023/04/24 06:39:41;;;;;;;13.10;5.55;;;12.00;99.90;;;;;;5114507;28;20032;-75
2023/04/24 06:42:09;;;;;;;12.35;5.45;;;12.10;99.90;;;;;;5114828;28;20072;-74
2023/04/24 06:44:40;;;;;;;14.30;5.90;;;12.00;99.90;;;;;;5115038;28;20016;-73
2023/04/24 06:47:07;;;;;;;12.70;5.57;;;12.10;99.90;;;;;;5114775;28;20396;-75
2023/04/24 06:49:33;;;;;;;13.95;5.50;;;12.10;99.90;;;;;;5115128;28;20032;-74
2023/04/24 06:51:58;;;;;;;9.68;5.22;;;12.10;99.90;;;;;;5114642;28;20027;-74
2023/04/24 06:54:24;;;;;;;12.82;5.35;;;12.10;99.90;;;;;;5114264;28;20083;-74
2023/04/24 06:56:51;;;;;;;13.93;5.80;;;12.20;99.90;;;;;;5114580;28;20047;-75
2023/04/24 06:59:16;;;;;;;10.93;5.47;;;12.20;99.90;;;;;;5113741;28;20110;-75
2023/04/24 07:01:42;;;;;;;10.93;5.70;;;12.30;99.90;;;;;;5113465;28;20590;-73
2023/04/24 07:04:08;;;;;;;15.30;5.95;;;12.30;99.90;;;;;;5113706;28;20404;-74
2023/04/24 07:06:34;;;;;;;13.48;5.88;;;12.30;99.90;;;;;;5113020;28;20365;-74
2023/04/24 07:09:01;;;;;;;10.10;5.75;;;12.30;99.90;;;;;;5113562;28;20081;-74
2023/04/24 07:11:29;;;;;;;12.63;6.20;;;12.30;99.90;;;;;;5114687;28;20543;-74
2023/04/24 07:13:55;;;;;;;12.43;5.72;;;12.30;99.90;;;;;;5114132;28;20096;-74
2023/04/24 07:16:21;;;;;;;15.02;6.00;;;12.30;99.90;;;;;;5114490;28;20027;-74
2023/04/24 07:18:46;;;;;;;10.98;5.95;;;12.30;99.90;;;;;;5114141;28;20027;-74
2023/04/24 07:21:12;;;;;;;14.05;5.72;;;12.40;99.90;;;;;;5114023;28;20028;-75
2023/04/24 07:23:38;;;;;;;12.82;5.97;;;12.30;99.90;;;;;;5114225;28;20024;-74
2023/04/24 07:26:04;;;;;;;15.57;6.00;;;12.40;99.90;;;;;;5114044;28;20500;-74
2023/04/24 07:28:32;;;;;;;17.65;6.03;;;12.40;99.90;;;;;;5114058;28;20560;-74
2023/04/24 07:30:59;;;;;;;13.27;6.43;;;12.40;99.90;;;;;;5114252;28;20031;-74
2023/04/24 07:33:26;;;;;;;13.55;5.97;;;12.50;99.90;;;;;;5114097;28;20098;-74
2023/04/24 07:35:52;;;;;;;16.10;6.88;;;12.50;99.90;;;;;;5113769;28;20370;-74
2023/04/24 07:38:21;;;;;;;16.75;6.22;;;12.50;99.90;;;;;;5113770;28;20366;-74
2023/04/24 07:40:48;;;;;;;14.45;6.55;;;12.60;99.90;;;;;;5113654;28;20457;-74
2023/04/24 07:43:13;;;;;;;14.98;6.90;;;12.60;99.90;;;;;;5113663;28;20048;-74
2023/04/24 07:45:39;;;;;;;13.75;6.40;;;12.70;99.90;;;;;;5114187;28;20116;-74
2023/04/24 07:48:05;;;;;;;17.15;6.35;;;12.70;99.90;;;;;;5114089;28;20017;-74
2023/04/24 07:50:31;;;;;;;15.60;5.88;;;12.80;99.90;;;;;;5113512;28;20373;-74
2023/04/24 07:52:57;;;;;;;12.07;5.80;;;12.80;99.90;;;;;;5113652;28;20048;-74
2023/04/24 07:55:23;;;;;;;13.90;5.40;;;12.90;99.90;;;;;;5113578;28;20031;-75
2023/04/24 07:57:49;;;;;;;14.07;5.18;;;13.00;99.90;;;;;;5113422;28;20035;-74
2023/04/24 08:00:15;;;;;;;16.15;5.13;;;13.00;99.90;;;;;;5113669;28;20028;-74
2023/04/24 08:02:41;;;;;;;16.42;5.13;;;13.00;99.90;;;;;;5113984;28;20107;-74
2023/04/24 08:05:07;;;;;;;10.88;4.93;;;13.10;99.90;;;;;;5113541;28;20495;-74
2023/04/24 08:07:33;;;;;;;13.45;5.60;;;13.10;99.90;;;;;;5112885;28;20076;-74
2023/04/24 08:09:59;;;;;;;15.45;5.53;;;13.20;99.90;;;;;;5113232;28;20040;-74
2023/04/24 08:12:25;;;;;;;14.27;5.30;;;13.20;99.90;;;;;;5113463;28;20047;-74
2023/04/24 08:14:50;;;;;;;15.30;5.13;;;13.30;99.90;;;;;;5113337;28;20027;-74
2023/04/24 08:17:17;;;;;;;16.23;5.28;;;13.30;99.90;;;;;;5094601;28;20123;-74
2023/04/24 08:19:48;;;;;;;13.77;4.53;;;13.30;99.90;;;;;;5112770;28;20055;-74
2023/04/24 08:22:17;;;;;;;17.83;4.78;;;13.30;99.90;;;;;;5112941;28;20048;-75
2023/04/24 08:24:43;;;;;;;18.13;4.78;;;13.40;99.90;;;;;;5113287;28;20028;-74
2023/04/24 08:27:10;;;;;;;14.15;5.38;;;13.40;99.90;;;;;;5112998;28;20068;-74
2023/04/24 08:29:36;;;;;;;13.10;4.43;;;13.40;99.90;;;;;;5112774;28;20044;-74
2023/04/24 08:32:02;;;;;;;11.32;4.55;;;13.40;99.90;;;;;;5112465;28;20051;-74
2023/04/24 08:34:27;;;;;;;14.90;4.90;;;13.50;99.90;;;;;;5112537;28;20070;-74
2023/04/24 08:36:53;;;;;;;13.95;5.18;;;13.60;99.90;;;;;;5112607;28;20023;-73
2023/04/24 08:39:19;;;;;;;15.95;5.45;;;13.60;99.90;;;;;;5112684;28;20107;-74
2023/04/24 08:41:45;;;;;;;11.23;4.55;;;13.70;99.90;;;;;;5112681;28;20023;-74
2023/04/24 08:44:12;;;;;;;16.00;4.15;;;13.70;99.90;;;;;;5112980;28;20385;-74
2023/04/24 08:46:40;;;;;;;15.75;4.13;;;13.70;99.90;;;;;;5112325;28;20058;-75
2023/04/24 08:49:06;;;;;;;14.90;4.50;;;13.70;99.90;;;;;;5112671;28;20042;-74
2023/04/24 08:51:32;;;;;;;11.48;4.43;;;13.80;99.90;;;;;;5112025;28;20023;-74
2023/04/24 08:53:58;;;;;;;13.10;4.25;;;13.80;99.90;;;;;;5112866;28;20051;-74
2023/04/24 08:56:25;;;;;;;13.95;3.92;;;13.90;99.90;;;;;;5112446;28;20078;-74
2023/04/24 08:58:54;;;;;;;13.13;4.15;;;13.90;99.90;;;;;;5112185;28;20111;-74
2023/04/24 09:01:20;;;;;;;15.82;4.63;;;14.00;99.90;;;;;;5112137;28;20114;-74
2023/04/24 09:03:49;;;;;;;14.02;4.70;;;14.00;99.90;;;;;;5111752;28;20134;-74
2023/04/24 09:06:17;;;;;;;13.20;4.38;;;14.00;99.90;;;;;;5112590;28;20055;-74
2023/04/24 09:08:45;;;;;;;11.55;4.20;;;14.00;99.90;;;;;;5112214;28;20027;-74
2023/04/24 09:11:11;;;;;;;16.58;4.55;;;14.10;99.90;;;;;;5112257;28;20484;-74
2023/04/24 09:13:38;;;;;;;14.88;5.03;;;14.20;99.90;;;;;;5111994;28;20031;-75
2023/04/24 09:16:04;;;;;;;14.23;4.30;;;14.20;99.90;;;;;;5112033;28;20435;-74
2023/04/24 09:18:29;;;;;;;12.70;4.35;;;14.20;99.90;;;;;;5093622;28;20015;-74
2023/04/24 09:21:06;;;;;;;13.18;4.28;;;14.30;99.90;;;;;;5112119;28;20106;-74
2023/04/24 09:23:32;;;;;;;9.27;4.40;;;14.30;99.90;;;;;;5112085;28;20035;-74
2023/04/24 09:26:04;;;;;;;11.45;4.40;;;14.40;99.90;;;;;;5112130;28;20028;-74
2023/04/24 09:28:33;;;;;;;9.40;3.97;;;14.50;99.90;;;;;;5111077;28;20572;-74
2023/04/24 09:31:15;;;;;;;13.85;4.68;;;14.70;99.90;;;;;;5112025;28;20020;-75
2023/04/24 09:34:05;;;;;;;6.97;4.10;;;14.80;99.90;;;;;;5111428;28;20022;-74
2023/04/24 09:36:53;;;;;;;13.32;4.10;;;14.80;99.90;;;;;;5111741;28;20044;-74
2023/04/24 09:39:22;;;;;;;8.10;4.00;;;14.70;99.90;;;;;;5111893;28;20039;-74
2023/04/24 09:41:53;;;;;;;9.40;4.38;;;14.80;99.90;;;;;;5112089;28;20073;-74
2023/04/24 09:44:21;;;;;;;12.80;4.35;;;15.00;99.90;;;;;;5111602;28;20069;-74
2023/04/24 09:46:56;;;;;;;9.80;3.85;;;15.10;99.90;;;;;;5111687;28;20499;-74
2023/04/24 09:49:33;;;;;;;9.40;3.95;;;15.10;99.90;;;;;;5111548;28;20066;-74
2023/04/24 09:52:10;;;;;;;10.10;3.83;;;15.20;99.90;;;;;;5111826;28;20020;-74
2023/04/24 09:54:36;;;;;;;8.70;3.78;;;15.30;99.90;;;;;;5111905;28;20453;-74
2023/04/24 09:57:02;;;;;;;9.68;3.97;;;15.30;99.90;;;;;;5111585;28;20076;-74
2023/04/24 09:59:29;;;;;;;6.72;3.50;;;15.30;99.90;;;;;;5111388;28;20031;-75
2023/04/24 10:01:55;;;;;;;11.30;4.13;;;15.40;99.90;;;;;;5111863;28;20045;-74
2023/04/24 10:04:26;;;;;;;9.57;3.75;;;15.40;99.90;;;;;;5111655;28;20032;-74
2023/04/24 10:06:54;;;;;;;8.18;3.38;;;15.40;99.90;;;;;;5111717;28;20492;-75
2023/04/24 10:09:25;;;;;;;11.40;3.50;;;15.30;99.90;;;;;;5111520;28;20133;-74
2023/04/24 10:11:53;;;;;;;8.77;3.20;;;15.30;99.90;;;;;;5112066;28;20082;-74
2023/04/24 10:14:25;;;;;;;7.28;3.20;;;15.30;99.90;;;;;;5111625;28;20488;-74
2023/04/24 10:16:56;;;;;;;7.60;3.10;;;15.40;99.90;;;;;;5111037;28;20031;-75
2023/04/24 10:19:25;;;;;;;6.55;3.10;;;15.40;99.90;;;;;;5111394;28;20107;-74
2023/04/24 10:21:52;;;;;;;6.07;2.97;;;15.40;99.90;;;;;;5111346;28;20078;-74
2023/04/24 10:24:20;;;;;;;10.00;3.33;;;15.30;99.90;;;;;;5111233;28;20027;-74
2023/04/24 10:26:48;;;;;;;5.07;3.10;;;15.40;99.90;;;;;;5111745;28;20032;-74
2023/04/24 10:29:18;;;;;;;10.73;3.20;;;15.50;99.90;;;;;;5110953;28;20398;-74
2023/04/24 10:31:45;;;;;;;7.50;3.28;;;15.50;99.90;;;;;;5110914;28;20015;-75
2023/04/24 10:34:11;;;;;;;10.43;3.58;;;15.50;99.90;;;;;;5111789;28;20107;-74
2023/04/24 10:36:41;;;;;;;13.07;3.78;;;15.50;99.90;;;;;;5111550;28;20098;-75
2023/04/24 10:39:11;;;;;;;11.77;4.00;;;15.70;99.90;;;;;;5111958;28;20028;-75
2023/04/24 10:41:38;;;;;;;9.63;3.45;;;15.70;99.90;;;;;;5115306;28;20031;-74
2023/04/24 10:44:14;;;;;;;12.73;3.80;;;15.70;99.90;;;;;;5114867;28;20016;-75
2023/04/24 10:46:44;;;;;;;12.30;4.30;;;15.60;99.90;;;;;;5114774;28;20102;-75
2023/04/24 10:49:10;;;;;;;8.77;3.20;;;15.60;99.90;;;;;;5114518;28;20472;-75
2023/04/24 10:51:53;;;;;;;7.75;3.03;;;15.50;99.90;;;;;;5114978;28;20034;-74
2023/04/24 10:54:34;;;;;;;8.10;3.30;;;15.50;99.90;;;;;;5114520;28;20016;-75
2023/04/24 10:57:29;;;;;;;8.25;2.67;;;15.50;99.90;;;;;;5114779;28;20063;-75
2023/04/24 11:00:13;;;;;;;7.88;2.88;;;15.50;99.90;;;;;;5114524;28;20042;-74
2023/04/24 11:02:43;;;;;;;7.75;2.97;;;15.50;99.90;;;;;;5114415;28;20023;-74
2023/04/24 11:05:10;;;;;;;9.25;3.03;;;15.70;99.90;;;;;;5114309;28;20043;-75
2023/04/24 11:08:08;;;;;;;6.85;3.15;;;15.90;99.90;;;;;;5114899;28;20024;-74
2023/04/24 11:10:37;;;;;;;6.70;3.10;;;15.90;99.90;;;;;;5114662;28;20090;-74
2023/04/24 11:13:03;;;;;;;7.90;3.10;;;15.80;99.90;;;;;;5114162;28;20032;-74
2023/04/24 11:15:29;;;;;;;8.50;3.15;;;15.60;99.90;;;;;;5113882;28;20129;-75
2023/04/24 11:17:56;;;;;;;10.00;3.20;;;15.80;99.90;;;;;;5114425;28;20396;-75
2023/04/24 11:20:25;;;;;;;6.82;3.13;;;15.90;99.90;;;;;;5114464;28;20025;-75
2023/04/24 11:22:57;;;;;;;7.60;3.13;;;16.10;99.90;;;;;;5114347;28;20080;-75
2023/04/24 11:25:24;;;;;;;9.30;3.25;;;16.20;99.90;;;;;;5114264;28;20019;-73
2023/04/24 11:28:02;;;;;;;8.98;3.10;;;16.50;99.90;;;;;;5113963;28;20063;-73
2023/04/24 11:30:30;;;;;;;8.77;2.72;;;16.50;99.90;;;;;;5114005;28;20043;-75
2023/04/24 11:33:05;;;;;;;7.57;2.58;;;16.40;99.90;;;;;;5114337;28;20513;-74
2023/04/24 11:35:38;;;;;;;7.00;2.60;;;16.40;99.90;;;;;;5114294;28;20148;-74
2023/04/24 11:38:05;;;;;;;5.00;2.38;;;16.30;99.90;;;;;;5113852;28;20102;-72
2023/04/24 11:40:31;;;;;;;6.15;2.50;;;16.40;99.90;;;;;;5113598;28;20039;-73
2023/04/24 11:42:59;;;;;;;9.15;2.42;;;16.50;99.90;;;;;;5113341;28;20032;-73
2023/04/24 11:45:27;;;;;;;6.43;2.60;;;16.30;99.90;;;;;;5095572;28;20077;-73
2023/04/24 11:47:53;;;;;;;7.13;2.40;;;16.20;99.90;;;;;;5113943;28;20072;-73
2023/04/24 11:50:21;;;;;;;5.30;2.00;;;16.40;99.90;;;;;;5113851;28;20040;-73
2023/04/24 11:52:49;;;;;;;4.93;2.20;;;16.50;99.90;;;;;;5113496;28;20031;-73
2023/04/24 11:55:15;;;;;;;4.20;1.98;;;16.70;99.90;;;;;;5113504;28;20024;-73
2023/04/24 11:57:48;;;;;;;5.82;2.00;;;16.80;99.90;;;;;;5113048;28;20027;-73
2023/04/24 12:00:22;;;;;;;3.70;1.80;;;16.80;99.90;;;;;;5113358;28;20030;-73
2023/04/24 12:02:49;;;;;;;4.32;1.60;;;16.60;99.90;;;;;;5113528;28;20019;-73
2023/04/24 12:05:26;;;;;;;3.90;1.83;;;16.50;99.90;;;;;;5113349;28;20023;-73
2023/04/24 12:07:52;;;;;;;3.65;1.83;;;16.40;99.90;;;;;;5113026;28;20527;-73
2023/04/24 12:10:26;;;;;;;3.90;1.63;;;16.30;99.90;;;;;;5112969;28;20028;-73
2023/04/24 12:12:53;;;;;;;4.93;1.75;;;16.40;99.90;;;;;;5112656;28;20078;-74
2023/04/24 12:15:20;;;;;;;4.30;1.80;;;16.50;99.90;;;;;;5113798;28;20027;-73
2023/04/24 12:17:46;;;;;;;4.60;1.98;;;16.60;99.90;;;;;;5113054;28;20032;-73
2023/04/24 12:20:13;;;;;;;7.78;3.50;;;16.60;99.90;;;;;;5112821;28;20391;-74
2023/04/24 12:22:47;;;;;;;5.45;2.90;;;16.50;99.90;;;;;;5113006;28;20035;-73
2023/04/24 12:25:18;;;;;;;4.47;1.98;;;16.50;99.90;;;;;;5113014;28;20055;-73
2023/04/24 12:27:45;;;;;;;6.63;1.67;;;16.40;99.90;;;;;;5112911;28;20020;-74
2023/04/24 12:30:16;;;;;;;3.53;1.67;;;16.50;99.90;;;;;;5112805;28;20039;-73
2023/04/24 12:32:44;;;;;;;3.17;1.30;;;16.50;99.90;;;;;;5112756;28;20031;-73
2023/04/24 12:35:10;;;;;;;5.57;1.73;;;16.50;99.90;;;;;;5112976;28;20020;-74
2023/04/24 12:37:36;;;;;;;3.50;1.38;;;16.60;99.90;;;;;;5113097;28;20080;-72
2023/04/24 12:40:05;;;;;;;4.55;1.40;;;16.60;99.90;;;;;;5112656;28;20027;-73